LIEOLOWI

Guest
Details From LIEO - Olbia Costa Smeralda
To LOWI - Innsbruck Kranebitten
Flight Number -
Tags Generated
Created
Modified
Stats Distance 390 nm / 723 km
Max Altitude 0 ft / 0 m
Waypoints 3
Social Downloads 1
Likes 0
Share VATSIM

Download

Looking for another format? Having issues loading an existing format? Contact us
Advertisement - Login to hide

Notes

Generated

Route

LIEO MATAR LOWI

ID Type Via Altitude Latitude Longitude Leg Dist Tot Dist Heading (true) Name
O LIEO APT - 0 ft / 0 m 40.89241˚ 9.50569˚ - 0 nm - -
MATAR FIX - 0 ft / 0 m 46.97500˚ 11.25333˚ 373 nm 373 nm 11° / 12° -
O LOWI APT - 0 ft / 0 m 47.25883˚ 11.33091˚ 17 nm 390 nm 11° / 11° -

Altitude Profile

Advertisement - Login to hide

Weather


0- 5 10 15 20 25 30 35+ Temperature / ° C

Clouds and Precipitation
Forecast for 2018-05-27 12:00 UTC. Updated 40 minutes ago

Ground ~20,000 ft ~40,000 ft Winds

LIEO

Details ICAO LIEO (OLB)
Name OLBIA COSTA SMERALDA
Region Italy
Timezone Europe/Rome (UTC+2.0)
Stats Elevation 37 ft / 11 m (AMSL)
Location 40.898661° 9.517629°
Runways 1
Magnetic Variation 2.489° E

METAR

LIEO 271150Z 09016KT 9999 FEW020 24/19 Q1015

Decode

TAF

TAF LIEO 271100Z 2712/2812 07014KT 9999 FEW020 BECMG 2718/2720 VRB05KT BECMG 2808/2810 09013KT TEMPO 2808/2812 RA

Decode

Departure Runways

ID Width Length Bearing (true) Bearing (mag) Surface Threshold Offset Overrun Length
06 148 ft / 45 m 8,013 ft / 2,442 m 55.30° 52.81° Asphalt 805 ft / 245 m 180 ft / 55 m
24 148 ft / 45 m 8,013 ft / 2,442 m 235.31° 232.82° Asphalt 495 ft / 151 m 180 ft / 55 m

LOWI

Details ICAO LOWI (INN)
Name Innsbruck Kranebitten
Region Austria
Timezone Europe/Vienna (UTC+2.0)
Stats Elevation 1,906 ft / 581 m (AMSL)
Location 47.260226° 11.343967°
Runways 1
Magnetic Variation 3.072° E

METAR

LOWI 271150Z VRB02KT 9999 FEW060 FEW060CB SCT130 BKN300 26/14 Q1018 TEMPO FM1300 TSRA SCT060 FEW060CB BKN120

Decode

TAF

TAF LOWI 271115Z 2712/2812 09005KT 9999 FEW060 SCT150 BKN250 TX28/2812Z TN14/2804Z TEMPO 2712/2718 09013KT TSRA SCT070 FEW070CB PROB30 TEMPO 2714/2719 VRB15G25KT TSGR SCT060CB BKN080 BECMG 2719/2721 VRB02KT CAVOK BECMG 2804/2806 27007KT BECMG 2809/2811 12012G25KT FEW070 BKN300

Decode

Destination Runways

ID Width Length Bearing (true) Bearing (mag) Surface Threshold Offset Overrun Length
08 148 ft / 45 m 6,545 ft / 1,995 m 81.02° 77.95° Asphalt 338 ft / 103 m 0 ft / 0 m
26 148 ft / 45 m 6,545 ft / 1,995 m 261.04° 257.97° Asphalt 0 ft / 0 m 0 ft / 0 m

Approach Navaids

Runway Type Ident Frequency Range Bearing (true) Bearing (mag) Slope Elevation
26 Localiser OEV 111.10 MHz 27 nm / 50 km 256.00° 252.93° - 1,906 ft / 581 m (AMSL)
26 Localiser OEJ 109.70 MHz 30 nm / 56 km 69.00° 65.93° - 1,906 ft / 581 m (AMSL)
26 Glidescope OEV 111.10 MHz 18 nm / 33 km 256.00° 252.93° 3.80° 1,911 ft / 582 m (AMSL)
26 DME OEJ 109.70 MHz 30 nm / 56 km - - - 1,906 ft / 581 m (AMSL)
26 DME OEV 111.10 MHz 27 nm / 50 km - - - 1,911 ft / 582 m (AMSL)

Popular Alternatives